createdAt,value
2024-04-25T00:00:42.979Z,4.92
2024-04-25T00:03:09.843Z,4.97
2024-04-25T00:05:37.013Z,4.96
2024-04-25T00:08:05.203Z,5.04
2024-04-25T00:10:31.921Z,5.04
2024-04-25T00:12:58.622Z,5.06
2024-04-25T00:15:25.330Z,5.08
2024-04-25T00:17:52.149Z,5.10
2024-04-25T00:20:18.923Z,5.13
2024-04-25T00:22:45.557Z,5.15
2024-04-25T00:25:12.383Z,5.17
2024-04-25T00:27:39.038Z,5.23
2024-04-25T00:30:06.600Z,5.24
2024-04-25T00:32:33.385Z,5.27
2024-04-25T00:35:01.724Z,5.22
2024-04-25T00:37:28.395Z,5.18
2024-04-25T00:39:56.412Z,5.13
2024-04-25T00:42:24.047Z,5.11
2024-04-25T00:44:51.171Z,5.06
2024-04-25T00:47:19.799Z,5.03
2024-04-25T00:49:47.713Z,5.03
2024-04-25T00:52:16.942Z,5.03
2024-04-25T00:54:44.072Z,5.05
2024-04-25T00:57:12.292Z,5.05
2024-04-25T00:59:48.902Z,5.05
2024-04-25T01:02:17.090Z,5.07
2024-04-25T01:04:44.764Z,5.02
2024-04-25T01:07:11.476Z,5.00
2024-04-25T01:09:38.134Z,5.04
2024-04-25T01:12:06.111Z,5.03
2024-04-25T01:14:33.217Z,5.09
2024-04-25T01:17:00.185Z,5.14
2024-04-25T01:19:27.028Z,5.09
2024-04-25T01:21:53.699Z,5.14
2024-04-25T01:24:31.126Z,5.09
2024-04-25T01:26:58.188Z,5.07
2024-04-25T01:29:25.366Z,5.03
2024-04-25T01:31:52.258Z,5.06
2024-04-25T01:34:18.920Z,5.06
2024-04-25T01:36:45.656Z,5.03
2024-04-25T01:39:12.335Z,5.01
2024-04-25T01:41:39.267Z,5.06
2024-04-25T01:44:06.436Z,5.05
2024-04-25T01:46:33.307Z,5.06
2024-04-25T01:49:02.593Z,5.04
2024-04-25T01:51:29.825Z,5.10
2024-04-25T01:53:56.528Z,5.13
2024-04-25T01:56:23.230Z,5.13
2024-04-25T01:58:49.888Z,5.13
2024-04-25T02:01:16.517Z,5.09
2024-04-25T02:03:43.937Z,5.09
2024-04-25T02:06:12.989Z,5.03
2024-04-25T02:08:39.755Z,5.00
2024-04-25T02:11:09.197Z,4.95
2024-04-25T02:13:36.709Z,4.92
2024-04-25T02:16:03.430Z,4.83
2024-04-25T02:18:30.200Z,4.76
2024-04-25T02:21:15.346Z,4.70
2024-04-25T02:24:00.788Z,4.60
2024-04-25T02:26:27.433Z,4.54
2024-04-25T02:28:54.131Z,4.50
2024-04-25T02:31:29.634Z,4.45
2024-04-25T02:33:56.490Z,4.39
2024-04-25T02:36:23.139Z,4.32
2024-04-25T02:38:49.817Z,4.27
2024-04-25T02:41:16.632Z,4.20
2024-04-25T02:43:43.330Z,4.14
2024-04-25T02:46:09.981Z,4.12
2024-04-25T02:48:36.698Z,4.07
2024-04-25T02:51:03.600Z,4.06
2024-04-25T02:53:32.704Z,4.04
2024-04-25T02:56:00.006Z,4.06
2024-04-25T02:58:26.756Z,4.04
2024-04-25T03:00:59.522Z,4.04
2024-04-25T03:03:26.282Z,4.04
2024-04-25T03:05:53.222Z,4.06
2024-04-25T03:08:19.982Z,4.11
2024-04-25T03:10:46.731Z,4.17
2024-04-25T03:13:13.478Z,4.24
2024-04-25T03:15:40.148Z,4.28
2024-04-25T03:18:07.070Z,4.34
2024-04-25T03:20:36.887Z,4.37
2024-04-25T03:23:03.589Z,4.42
2024-04-25T03:25:30.327Z,4.44
2024-04-25T03:27:57.021Z,4.49
2024-04-25T03:30:23.721Z,4.52
2024-04-25T03:32:50.436Z,4.52
2024-04-25T03:35:17.370Z,4.53
2024-04-25T03:37:44.058Z,4.54
2024-04-25T03:40:11.092Z,4.66
2024-04-25T03:42:37.726Z,4.55
2024-04-25T03:45:04.580Z,4.49
2024-04-25T03:47:31.322Z,4.46
2024-04-25T03:49:58.072Z,4.43
2024-04-25T03:52:25.284Z,4.38
2024-04-25T03:54:51.944Z,4.31
2024-04-25T03:57:18.666Z,4.27
2024-04-25T03:59:45.775Z,4.26
2024-04-25T04:02:12.559Z,4.32
2024-04-25T04:04:39.490Z,4.31
2024-04-25T04:07:06.196Z,4.35
2024-04-25T04:09:32.833Z,4.40
2024-04-25T04:11:59.810Z,4.45
2024-04-25T04:14:26.604Z,4.55
2024-04-25T04:16:58.395Z,4.57
2024-04-25T04:19:25.571Z,4.55
2024-04-25T04:21:52.221Z,4.69
2024-04-25T04:24:18.936Z,4.66
2024-04-25T04:26:45.642Z,4.66
2024-04-25T04:29:12.373Z,4.68
2024-04-25T04:31:39.080Z,4.70
2024-04-25T04:34:06.515Z,4.74
2024-04-25T04:36:35.984Z,4.74
2024-04-25T04:39:03.963Z,4.72
2024-04-25T04:41:30.779Z,4.74
2024-04-25T04:43:59.358Z,4.80
2024-04-25T04:46:25.854Z,4.71
2024-04-25T04:48:52.651Z,4.78
2024-04-25T04:51:22.642Z,4.75
2024-04-25T04:53:49.591Z,4.73
2024-04-25T04:56:16.757Z,4.72
2024-04-25T04:58:43.549Z,4.77
2024-04-25T05:01:10.521Z,4.80
2024-04-25T05:03:37.575Z,4.81
2024-04-25T05:06:05.566Z,4.86
2024-04-25T05:08:37.013Z,4.88
2024-04-25T05:11:03.918Z,5.00
2024-04-25T05:13:30.619Z,5.05
2024-04-25T05:15:57.429Z,5.05
2024-04-25T05:18:24.144Z,5.13
2024-04-25T05:20:50.890Z,5.22
2024-04-25T05:23:17.586Z,5.17
2024-04-25T05:25:44.297Z,5.22
2024-04-25T05:28:10.928Z,5.29
2024-04-25T05:30:37.657Z,5.31
2024-04-25T05:33:04.896Z,5.30
2024-04-25T05:35:31.804Z,5.25
2024-04-25T05:37:58.864Z,5.28
2024-04-25T05:40:25.792Z,5.20
2024-04-25T05:42:52.542Z,5.16
2024-04-25T05:45:19.705Z,5.14
2024-04-25T05:47:46.502Z,5.07
2024-04-25T05:50:13.402Z,5.00
2024-04-25T05:52:41.549Z,4.98
2024-04-25T05:55:08.743Z,4.91
2024-04-25T05:57:35.378Z,5.01
2024-04-25T06:00:02.107Z,5.02
2024-04-25T06:02:29.126Z,5.09
2024-04-25T06:04:55.991Z,5.08
2024-04-25T06:07:22.615Z,5.12
2024-04-25T06:09:51.024Z,5.21
2024-04-25T06:12:18.001Z,5.29
2024-04-25T06:14:44.883Z,5.39
2024-04-25T06:17:12.786Z,5.46
2024-04-25T06:19:39.680Z,5.62
2024-04-25T06:22:06.397Z,5.68
2024-04-25T06:24:33.140Z,5.80
2024-04-25T06:26:59.762Z,5.96
2024-04-25T06:29:26.622Z,5.94
2024-04-25T06:31:54.222Z,6.09
2024-04-25T06:34:20.979Z,6.13
2024-04-25T06:36:48.249Z,6.19
2024-04-25T06:39:15.111Z,6.17
2024-04-25T06:41:50.545Z,6.31
2024-04-25T06:44:29.084Z,6.36
2024-04-25T06:46:59.121Z,6.45
2024-04-25T06:49:26.299Z,6.65
2024-04-25T06:51:53.032Z,6.66
2024-04-25T06:54:19.710Z,6.73
2024-04-25T06:56:46.395Z,6.82
2024-04-25T06:59:13.085Z,6.88
2024-04-25T07:01:41.469Z,6.96
2024-04-25T07:04:08.167Z,6.92
2024-04-25T07:06:34.879Z,7.01
2024-04-25T07:09:04.795Z,7.04
2024-04-25T07:11:31.816Z,7.02
2024-04-25T07:13:58.676Z,7.06
2024-04-25T07:16:25.378Z,6.95
2024-04-25T07:18:52.148Z,6.79
2024-04-25T07:21:18.830Z,6.61
2024-04-25T07:23:45.549Z,6.25
2024-04-25T07:26:12.402Z,6.07
2024-04-25T07:28:39.114Z,5.96
2024-04-25T07:31:05.996Z,5.98
2024-04-25T07:33:33.176Z,6.06
2024-04-25T07:36:00.021Z,6.22
2024-04-25T07:38:26.760Z,6.34
2024-04-25T07:40:53.563Z,6.40
2024-04-25T07:43:20.293Z,6.60
2024-04-25T07:45:47.581Z,6.72
2024-04-25T07:48:14.721Z,6.73
2024-04-25T07:50:41.796Z,6.82
2024-04-25T07:53:08.572Z,7.01
2024-04-25T07:55:35.301Z,7.18
2024-04-25T07:58:02.776Z,7.32
2024-04-25T08:00:29.496Z,7.46
2024-04-25T08:02:56.773Z,7.67
2024-04-25T08:05:23.818Z,7.88
2024-04-25T08:07:50.623Z,7.78
2024-04-25T08:10:17.362Z,7.89
2024-04-25T08:12:45.423Z,7.96
2024-04-25T08:15:12.405Z,7.96
2024-04-25T08:17:39.434Z,7.95
2024-04-25T08:20:06.514Z,7.89
2024-04-25T08:22:33.255Z,7.71
2024-04-25T08:24:59.916Z,6.93
2024-04-25T08:27:26.591Z,6.76
2024-04-25T08:29:53.335Z,6.21
2024-04-25T08:32:22.650Z,6.07
2024-04-25T08:34:51.043Z,5.99
2024-04-25T08:37:17.719Z,5.73
2024-04-25T08:39:44.383Z,5.78
2024-04-25T08:42:11.333Z,5.90
2024-04-25T08:44:39.281Z,5.77
2024-04-25T08:47:06.938Z,5.96
2024-04-25T08:49:34.214Z,6.08
2024-04-25T08:52:01.055Z,6.20
2024-04-25T08:54:28.024Z,6.25
2024-04-25T08:56:55.396Z,6.29
2024-04-25T08:59:22.086Z,6.42
2024-04-25T09:01:51.055Z,6.61
2024-04-25T09:04:20.750Z,6.71
2024-04-25T09:06:47.459Z,6.98
2024-04-25T09:09:14.146Z,7.18
2024-04-25T09:11:40.853Z,7.15
2024-04-25T09:14:07.636Z,7.55
2024-04-25T09:16:40.175Z,7.60
2024-04-25T09:19:08.632Z,7.84
2024-04-25T09:21:38.672Z,7.75
2024-04-25T09:24:07.750Z,7.39
2024-04-25T09:26:36.149Z,7.59
2024-04-25T09:29:03.622Z,7.47
2024-04-25T09:31:32.723Z,7.75
2024-04-25T09:33:59.605Z,8.01
2024-04-25T09:36:26.476Z,8.02
2024-04-25T09:38:53.273Z,8.13
2024-04-25T09:41:21.343Z,8.18
2024-04-25T09:43:48.658Z,7.96
2024-04-25T09:46:24.507Z,8.13
2024-04-25T09:48:54.172Z,8.19
2024-04-25T09:51:37.658Z,8.21
2024-04-25T09:54:12.441Z,8.07
2024-04-25T09:56:39.756Z,8.09
2024-04-25T09:59:37.643Z,8.06
2024-04-25T10:02:05.217Z,8.09
2024-04-25T10:04:35.910Z,8.21
2024-04-25T10:07:04.082Z,8.41
2024-04-25T10:09:31.374Z,8.34
2024-04-25T10:11:58.708Z,8.38
2024-04-25T10:14:31.482Z,8.48
2024-04-25T10:17:02.358Z,8.47
2024-04-25T10:19:39.830Z,8.51
2024-04-25T10:22:07.992Z,8.49
2024-04-25T10:24:46.114Z,8.62
2024-04-25T10:27:13.218Z,8.32
2024-04-25T10:29:39.880Z,8.09
2024-04-25T10:32:06.868Z,8.03
2024-04-25T10:34:33.569Z,8.09
2024-04-25T10:37:00.224Z,8.11
2024-04-25T10:39:26.913Z,8.03
2024-04-25T10:41:53.713Z,7.84
2024-04-25T10:44:20.474Z,7.91
2024-04-25T10:46:47.547Z,8.03
2024-04-25T10:49:14.364Z,7.98
2024-04-25T10:51:41.931Z,7.90
2024-04-25T10:54:08.734Z,7.50
2024-04-25T10:56:36.336Z,7.52
2024-04-25T10:59:03.051Z,7.50
2024-04-25T11:01:31.407Z,7.72
2024-04-25T11:04:04.864Z,7.79
2024-04-25T11:06:32.803Z,7.79
2024-04-25T11:08:59.606Z,7.86
2024-04-25T11:11:27.463Z,7.84
2024-04-25T11:13:54.734Z,7.89
2024-04-25T11:16:21.823Z,8.16
2024-04-25T11:19:01.208Z,8.74
2024-04-25T11:21:34.207Z,9.28
2024-04-25T11:24:01.182Z,10.44
2024-04-25T11:26:28.059Z,10.20
2024-04-25T11:28:55.261Z,10.73
2024-04-25T11:31:22.331Z,10.35
2024-04-25T11:33:49.234Z,9.97
2024-04-25T11:36:26.993Z,9.27
2024-04-25T11:38:55.425Z,9.25
2024-04-25T11:41:22.518Z,9.64
2024-04-25T11:43:49.542Z,9.57
2024-04-25T11:46:16.296Z,9.76
2024-04-25T11:48:51.606Z,9.51
2024-04-25T11:51:18.355Z,9.19
2024-04-25T11:53:45.144Z,9.67
2024-04-25T11:56:11.953Z,9.31
2024-04-25T11:58:38.651Z,9.23
2024-04-25T12:01:05.446Z,8.84
2024-04-25T12:03:32.261Z,8.97
2024-04-25T12:05:59.005Z,8.71
2024-04-25T12:08:25.739Z,8.92
2024-04-25T12:10:54.460Z,9.11
2024-04-25T12:13:21.314Z,8.74
2024-04-25T12:15:47.991Z,8.92
2024-04-25T12:18:14.723Z,9.14
2024-04-25T12:20:41.467Z,9.00
2024-04-25T12:23:09.125Z,8.99
2024-04-25T12:25:35.829Z,8.91
2024-04-25T12:28:02.466Z,9.11
2024-04-25T12:30:31.268Z,9.05
2024-04-25T12:32:58.078Z,9.20
2024-04-25T12:35:24.844Z,9.10
2024-04-25T12:37:52.543Z,8.91
2024-04-25T12:40:19.248Z,8.74
2024-04-25T12:42:45.884Z,8.55
2024-04-25T12:45:18.664Z,8.82
2024-04-25T12:47:45.450Z,9.00
2024-04-25T12:50:16.830Z,9.08
2024-04-25T12:52:44.937Z,9.25
2024-04-25T12:55:11.609Z,9.34
2024-04-25T12:57:38.322Z,9.36
2024-04-25T13:00:05.553Z,9.80
2024-04-25T13:02:32.228Z,10.06
2024-04-25T13:04:59.088Z,10.22
2024-04-25T13:07:25.758Z,10.35
2024-04-25T13:09:52.464Z,10.09
2024-04-25T13:12:19.187Z,9.89
2024-04-25T13:14:46.034Z,9.82
2024-04-25T13:17:12.802Z,9.90
2024-04-25T13:19:39.539Z,9.84
2024-04-25T13:22:06.668Z,9.77
2024-04-25T13:24:33.406Z,9.60
2024-04-25T13:27:03.113Z,9.57
2024-04-25T13:29:30.467Z,9.45
2024-04-25T13:31:57.334Z,9.20
2024-04-25T13:34:24.146Z,9.18
2024-04-25T13:36:57.536Z,9.03
2024-04-25T13:39:24.470Z,9.08
2024-04-25T13:41:51.243Z,8.95
2024-04-25T13:44:18.060Z,8.89
2024-04-25T13:46:44.925Z,8.81
2024-04-25T13:49:11.791Z,8.73
2024-04-25T13:51:38.538Z,8.69
2024-04-25T13:54:07.931Z,8.66
2024-04-25T13:56:35.114Z,8.66
2024-04-25T13:59:02.302Z,8.57
2024-04-25T14:01:29.152Z,8.58
2024-04-25T14:03:55.950Z,8.62
2024-04-25T14:06:22.698Z,8.48
2024-04-25T14:08:49.511Z,8.28
2024-04-25T14:11:17.377Z,8.17
2024-04-25T14:13:44.155Z,8.16
2024-04-25T14:16:11.388Z,8.15
2024-04-25T14:18:38.846Z,8.20
2024-04-25T14:21:06.482Z,8.19
2024-04-25T14:23:33.278Z,8.12
2024-04-25T14:26:18.408Z,8.16
2024-04-25T14:28:45.110Z,8.23
2024-04-25T14:31:17.497Z,8.31
2024-04-25T14:33:45.520Z,8.52
2024-04-25T14:36:12.860Z,8.55
2024-04-25T14:38:40.104Z,8.49
2024-04-25T14:41:09.810Z,8.42
2024-04-25T14:43:36.983Z,8.37
2024-04-25T14:46:03.935Z,8.20
2024-04-25T14:48:30.755Z,8.09
2024-04-25T14:50:58.884Z,7.91
2024-04-25T14:53:26.863Z,7.74
2024-04-25T14:55:53.987Z,7.51
2024-04-25T14:58:20.695Z,7.26
2024-04-25T15:00:47.598Z,7.20
2024-04-25T15:03:14.499Z,7.09
2024-04-25T15:05:41.326Z,7.00
2024-04-25T15:08:08.156Z,6.87
2024-04-25T15:10:36.169Z,6.77
2024-04-25T15:13:03.817Z,6.63
2024-04-25T15:15:34.113Z,6.54
2024-04-25T15:18:00.997Z,6.44
2024-04-25T15:20:27.897Z,6.38
2024-04-25T15:22:57.757Z,6.36
2024-04-25T15:25:27.789Z,6.40
2024-04-25T15:27:54.501Z,6.38
2024-04-25T15:30:21.215Z,6.40
2024-04-25T15:32:50.742Z,6.39
2024-04-25T15:35:17.763Z,6.45
2024-04-25T15:37:44.499Z,6.51
2024-04-25T15:40:11.217Z,6.54
2024-04-25T15:42:37.854Z,6.64
2024-04-25T15:45:04.845Z,6.70
2024-04-25T15:47:31.767Z,6.77
2024-04-25T15:49:58.503Z,6.75
2024-04-25T15:52:29.314Z,6.83
2024-04-25T15:54:56.059Z,6.88
2024-04-25T15:57:22.826Z,6.96
2024-04-25T15:59:50.218Z,7.01
2024-04-25T16:02:17.676Z,7.18
2024-04-25T16:04:45.244Z,7.27
2024-04-25T16:07:12.857Z,7.20
2024-04-25T16:09:39.687Z,7.25
2024-04-25T16:12:06.971Z,7.35
2024-04-25T16:14:33.757Z,7.42
2024-04-25T16:17:00.575Z,7.28
2024-04-25T16:19:30.262Z,7.32
2024-04-25T16:22:01.050Z,7.27
2024-04-25T16:24:29.324Z,7.23
2024-04-25T16:26:56.251Z,7.24
2024-04-25T16:29:26.194Z,7.26
2024-04-25T16:31:53.718Z,7.22
2024-04-25T16:34:20.665Z,7.15
2024-04-25T16:36:47.438Z,7.16
2024-04-25T16:39:14.122Z,6.95
2024-04-25T16:41:40.819Z,6.80
2024-04-25T16:44:07.586Z,6.84
2024-04-25T16:46:34.510Z,6.91
2024-04-25T16:49:01.177Z,7.10
2024-04-25T16:51:29.842Z,7.23
2024-04-25T16:53:56.664Z,7.28
2024-04-25T16:56:23.375Z,7.36
2024-04-25T16:58:50.618Z,7.46
2024-04-25T17:01:18.039Z,7.51
2024-04-25T17:03:45.282Z,7.51
2024-04-25T17:06:12.110Z,7.55
2024-04-25T17:08:39.340Z,7.59
2024-04-25T17:11:06.101Z,7.66
2024-04-25T17:13:32.936Z,7.70
2024-04-25T17:15:59.579Z,7.77
2024-04-25T17:18:26.341Z,7.82
2024-04-25T17:20:53.227Z,7.86
2024-04-25T17:23:22.204Z,7.85
2024-04-25T17:25:48.983Z,7.85
2024-04-25T17:28:15.709Z,7.87
2024-04-25T17:30:42.361Z,7.87
2024-04-25T17:33:09.271Z,7.92
2024-04-25T17:35:36.045Z,7.97
2024-04-25T17:38:02.847Z,7.94
2024-04-25T17:40:29.617Z,8.01
2024-04-25T17:42:56.284Z,8.08
2024-04-25T17:45:23.170Z,7.72
2024-04-25T17:47:51.102Z,7.29
2024-04-25T17:50:17.946Z,7.01
2024-04-25T17:52:44.695Z,6.68
2024-04-25T17:55:12.478Z,6.47
2024-04-25T17:57:43.891Z,6.41
2024-04-25T18:00:11.755Z,6.31
2024-04-25T18:02:40.206Z,6.31
2024-04-25T18:05:07.137Z,6.24
2024-04-25T18:07:36.576Z,6.25
2024-04-25T18:10:04.123Z,6.28
2024-04-25T18:12:30.885Z,6.25
2024-04-25T18:14:57.570Z,6.28
2024-04-25T18:17:26.623Z,6.30
2024-04-25T18:19:54.279Z,6.28
2024-04-25T18:22:25.245Z,6.34
2024-04-25T18:24:53.091Z,6.33
2024-04-25T18:27:20.440Z,6.34
2024-04-25T18:29:48.229Z,6.32
2024-04-25T18:32:15.096Z,6.22
2024-04-25T18:34:44.623Z,6.24
2024-04-25T18:37:11.631Z,6.26
2024-04-25T18:39:38.481Z,6.26
2024-04-25T18:42:08.740Z,6.22
2024-04-25T18:44:36.339Z,6.23
2024-04-25T18:47:03.496Z,6.26
2024-04-25T18:49:33.407Z,6.25
2024-04-25T18:52:00.631Z,6.27
2024-04-25T18:54:27.899Z,6.22
2024-04-25T18:56:55.281Z,6.26
2024-04-25T18:59:22.526Z,6.27
2024-04-25T19:01:49.316Z,6.29
2024-04-25T19:04:22.030Z,6.28
2024-04-25T19:06:53.005Z,6.27
2024-04-25T19:09:22.840Z,6.28
2024-04-25T19:11:49.976Z,6.32
2024-04-25T19:14:17.398Z,6.34
2024-04-25T19:16:44.569Z,6.38
2024-04-25T19:19:11.659Z,6.37
2024-04-25T19:21:43.144Z,6.38
2024-04-25T19:24:10.828Z,6.41
2024-04-25T19:26:37.998Z,6.42
2024-04-25T19:29:04.877Z,6.45
2024-04-25T19:31:41.143Z,6.47
2024-04-25T19:34:08.240Z,6.44
2024-04-25T19:36:36.454Z,6.46
2024-04-25T19:39:03.411Z,6.50
2024-04-25T19:41:33.266Z,6.53
2024-04-25T19:44:00.031Z,6.56
2024-04-25T19:46:26.756Z,6.55
2024-04-25T19:48:53.556Z,6.56
2024-04-25T19:51:20.350Z,6.58
2024-04-25T19:53:47.083Z,6.60
2024-04-25T19:56:14.625Z,6.56
2024-04-25T19:58:46.355Z,6.52
2024-04-25T20:01:15.503Z,6.50
2024-04-25T20:03:42.841Z,6.49
2024-04-25T20:06:17.899Z,6.51
2024-04-25T20:08:44.951Z,6.55
2024-04-25T20:11:11.758Z,6.53
2024-04-25T20:13:41.915Z,6.53
2024-04-25T20:16:18.744Z,6.52
2024-04-25T20:19:04.259Z,6.47
2024-04-25T20:21:31.427Z,6.48
2024-04-25T20:24:00.456Z,6.50
2024-04-25T20:26:30.171Z,6.51
2024-04-25T20:28:56.866Z,6.52
2024-04-25T20:31:24.717Z,6.54
2024-04-25T20:33:51.769Z,6.53
2024-04-25T20:36:18.620Z,6.55
2024-04-25T20:38:47.065Z,6.58
2024-04-25T20:41:13.717Z,6.56
2024-04-25T20:43:40.720Z,6.58
2024-04-25T20:46:08.149Z,6.62
2024-04-25T20:48:35.266Z,6.62
2024-04-25T20:51:02.434Z,6.61
2024-04-25T20:53:29.232Z,6.62
2024-04-25T20:55:57.916Z,6.62
2024-04-25T20:58:27.495Z,6.61
2024-04-25T21:00:56.142Z,6.59
2024-04-25T21:03:22.918Z,6.60
2024-04-25T21:05:50.084Z,6.61
2024-04-25T21:08:16.979Z,6.61
2024-04-25T21:10:43.667Z,6.61
2024-04-25T21:13:10.398Z,6.61
2024-04-25T21:15:37.127Z,6.57
2024-04-25T21:18:03.991Z,6.59
2024-04-25T21:20:32.363Z,6.53
2024-04-25T21:22:59.085Z,6.51
2024-04-25T21:25:25.922Z,6.53
2024-04-25T21:27:53.176Z,6.52
2024-04-25T21:30:20.039Z,6.50
2024-04-25T21:32:46.985Z,6.46
2024-04-25T21:35:13.854Z,6.41
2024-04-25T21:37:40.532Z,6.41
2024-04-25T21:40:07.661Z,6.45
2024-04-25T21:42:34.411Z,6.41
2024-04-25T21:45:03.285Z,6.40
2024-04-25T21:47:30.097Z,6.41
2024-04-25T21:49:56.879Z,6.39
2024-04-25T21:52:23.546Z,6.39
2024-04-25T21:54:50.173Z,6.35
2024-04-25T21:57:18.779Z,6.36
2024-04-25T21:59:45.932Z,6.31
2024-04-25T22:02:12.735Z,6.35
2024-04-25T22:04:39.491Z,6.35
2024-04-25T22:07:06.451Z,6.36
2024-04-25T22:09:33.193Z,6.35
2024-04-25T22:12:00.185Z,6.36
2024-04-25T22:14:26.961Z,6.32
2024-04-25T22:16:53.799Z,6.34
2024-04-25T22:19:20.591Z,6.31
2024-04-25T22:21:49.795Z,6.29
2024-04-25T22:24:18.049Z,6.28
2024-04-25T22:26:46.221Z,6.30
2024-04-25T22:29:12.969Z,6.28
2024-04-25T22:31:39.706Z,6.29
2024-04-25T22:34:06.478Z,6.28
2024-04-25T22:36:33.148Z,6.23
2024-04-25T22:39:00.376Z,6.26
2024-04-25T22:41:27.530Z,6.22
2024-04-25T22:43:54.307Z,6.24
2024-04-25T22:46:21.009Z,6.13
2024-04-25T22:48:47.926Z,6.07
2024-04-25T22:51:17.187Z,5.94
2024-04-25T22:53:43.954Z,5.96
2024-04-25T22:56:10.894Z,5.87
2024-04-25T22:58:37.598Z,5.82
2024-04-25T23:01:04.567Z,5.75
2024-04-25T23:03:31.981Z,5.82
2024-04-25T23:05:59.173Z,5.80
2024-04-25T23:08:26.068Z,5.74
2024-04-25T23:10:52.919Z,5.70
2024-04-25T23:13:19.605Z,5.68
2024-04-25T23:15:46.331Z,5.72
2024-04-25T23:18:13.155Z,5.64
2024-04-25T23:20:40.134Z,5.64
2024-04-25T23:23:07.003Z,5.60
2024-04-25T23:25:33.644Z,5.63
2024-04-25T23:28:00.394Z,5.67
2024-04-25T23:30:27.245Z,5.64
2024-04-25T23:32:54.171Z,5.67
2024-04-25T23:35:21.107Z,5.67
2024-04-25T23:37:47.894Z,5.73
2024-04-25T23:40:14.716Z,5.71
2024-04-25T23:42:41.537Z,5.72
2024-04-25T23:45:08.444Z,5.73
2024-04-25T23:47:35.406Z,5.66
2024-04-25T23:50:02.443Z,5.63
2024-04-25T23:52:29.074Z,5.59
2024-04-25T23:54:55.746Z,5.51
2024-04-25T23:57:22.400Z,5.56
2024-04-25T23:59:49.214Z,5.64
